createdAt,value
2018-07-23T06:08:24.528Z,49.70
2018-07-23T06:13:28.973Z,48.60
2018-07-23T06:18:33.534Z,47.90
2018-07-23T06:23:37.641Z,47.90
2018-07-23T06:28:42.131Z,48.20
2018-07-23T06:33:46.850Z,47.70
2018-07-23T06:38:51.557Z,48.20
2018-07-23T06:43:56.065Z,48.90
2018-07-23T06:49:00.364Z,49.30
2018-07-23T06:54:04.569Z,48.80
2018-07-23T06:59:08.782Z,48.70
2018-07-23T07:04:12.883Z,48.10
2018-07-23T07:09:17.494Z,49.10
2018-07-23T07:14:21.849Z,48.50
2018-07-23T07:19:26.186Z,48.70
2018-07-23T07:24:30.945Z,48.20
2018-07-23T07:29:35.067Z,47.90
2018-07-23T07:34:39.216Z,49.50
2018-07-23T07:39:44.395Z,49.00
2018-07-23T07:44:50.610Z,47.90
2018-07-23T07:49:54.839Z,48.10
2018-07-23T07:54:58.925Z,47.80
2018-07-23T08:00:03.343Z,48.10
2018-07-23T08:05:08.141Z,48.10
2018-07-23T08:10:12.669Z,47.80
2018-07-23T08:15:16.957Z,46.50
2018-07-23T08:20:21.054Z,46.50
2018-07-23T08:25:25.695Z,45.60
2018-07-23T08:35:34.571Z,45.50
2018-07-23T08:40:38.753Z,45.30
2018-07-23T08:45:43.193Z,46.40
2018-07-23T08:50:47.616Z,47.40
2018-07-23T08:55:51.959Z,47.70
2018-07-23T09:00:56.144Z,48.20
2018-07-23T09:06:00.870Z,47.40
2018-07-23T09:11:05.129Z,46.80
2018-07-23T09:16:09.791Z,47.10
2018-07-23T09:21:14.364Z,46.90
2018-07-23T09:26:18.569Z,45.60
2018-07-23T09:31:23.031Z,45.90
2018-07-23T09:36:28.087Z,44.90
2018-07-23T09:41:34.196Z,45.20
2018-07-23T09:46:38.769Z,44.90
2018-07-23T09:53:59.914Z,44.90
2018-07-23T09:59:04.382Z,44.30
2018-07-23T10:04:08.882Z,44.40
2018-07-23T10:09:13.545Z,44.20
2018-07-23T10:14:17.757Z,44.80
2018-07-23T10:19:21.904Z,44.30
2018-07-23T10:24:26.284Z,44.10
2018-07-23T10:29:30.414Z,43.50
2018-07-23T10:34:35.086Z,43.90
2018-07-23T10:39:40.225Z,44.30
2018-07-23T10:44:45.505Z,43.90
2018-07-23T10:49:50.282Z,44.80
2018-07-23T10:54:55.048Z,44.50
2018-07-23T10:59:59.256Z,44.70
2018-07-23T11:05:05.050Z,44.90
2018-07-23T11:10:10.792Z,44.70
2018-07-23T11:15:15.191Z,44.60
2018-07-23T11:20:19.794Z,44.60
2018-07-23T11:25:39.086Z,44.80
2018-07-23T11:30:28.511Z,44.60
2018-07-23T11:35:33.508Z,44.90
2018-07-23T11:40:38.003Z,44.60
2018-07-23T11:45:42.885Z,44.60
2018-07-23T11:50:47.945Z,45.00
2018-07-23T11:55:52.496Z,44.20
2018-07-23T12:00:56.861Z,44.70
2018-07-23T12:06:01.693Z,44.70
2018-07-23T12:11:06.854Z,44.40
2018-07-23T12:16:11.480Z,44.20
2018-07-23T12:21:15.859Z,44.30
2018-07-23T12:31:31.469Z,43.90
2018-07-23T12:36:36.671Z,44.10
2018-07-23T12:41:42.021Z,43.80
2018-07-23T12:46:46.129Z,44.30
2018-07-23T12:51:50.697Z,43.20
2018-07-23T12:56:55.120Z,43.30
2018-07-23T13:01:59.580Z,43.30
2018-07-23T13:07:03.850Z,43.10
2018-07-23T13:12:08.834Z,42.80
2018-07-23T13:17:13.180Z,43.70
2018-07-23T13:22:17.539Z,43.00
2018-07-23T13:27:21.997Z,43.20
2018-07-23T13:32:26.273Z,43.30
2018-07-23T13:37:30.370Z,43.40
2018-07-23T13:42:35.436Z,43.20
2018-07-23T13:47:40.199Z,42.80
2018-07-23T13:52:44.812Z,42.80
2018-07-23T14:02:53.301Z,42.70
2018-07-23T14:07:58.113Z,42.60
2018-07-23T14:13:03.597Z,42.50
2018-07-23T14:18:08.341Z,42.80
2018-07-23T14:23:12.564Z,42.80
2018-07-23T14:28:17.071Z,42.50
2018-07-23T14:33:21.665Z,42.20
2018-07-23T14:38:25.875Z,42.30
2018-07-23T14:43:30.055Z,42.20
2018-07-23T14:48:40.285Z,42.20
2018-07-23T15:12:36.120Z,43.20
2018-07-23T15:17:40.529Z,43.00
2018-07-23T15:22:44.745Z,42.90
2018-07-23T15:27:49.392Z,43.40
2018-07-23T15:32:53.848Z,44.00
2018-07-23T15:37:58.259Z,44.30
2018-07-23T15:43:03.535Z,43.80
2018-07-23T15:48:08.833Z,44.00
2018-07-23T15:53:13.412Z,43.90
2018-07-23T15:58:18.883Z,44.70
2018-07-23T16:08:27.419Z,44.60
2018-07-23T16:13:32.342Z,44.10
2018-07-23T16:18:37.246Z,43.80
2018-07-23T16:23:41.864Z,43.40
2018-07-23T16:28:46.652Z,43.30
2018-07-23T16:33:51.177Z,42.90
2018-07-23T16:38:55.637Z,42.80
2018-07-23T16:44:00.881Z,42.90
2018-07-23T16:49:07.122Z,42.00
2018-07-23T16:54:12.132Z,41.60
2018-07-23T16:59:17.847Z,41.30
2018-07-23T17:04:22.089Z,41.30
2018-07-23T17:09:26.529Z,41.10
2018-07-23T17:14:31.855Z,41.10
2018-07-23T17:19:36.554Z,41.50
2018-07-23T17:24:42.003Z,40.60
2018-07-23T17:29:46.296Z,41.10
2018-07-23T17:34:51.038Z,40.50
2018-07-23T17:39:55.584Z,40.10
2018-07-23T17:45:00.440Z,40.20
2018-07-23T17:50:06.222Z,40.40
2018-07-23T17:55:11.056Z,40.70
2018-07-23T18:00:15.335Z,40.70
2018-07-23T18:05:20.061Z,40.60
2018-07-23T18:10:25.409Z,40.80
2018-07-23T18:15:30.040Z,40.60
2018-07-23T18:20:38.462Z,40.70
2018-07-23T18:30:47.854Z,40.90
2018-07-23T18:35:53.161Z,41.50
2018-07-23T18:40:58.145Z,41.60
2018-07-23T18:46:06.611Z,42.10
2018-07-23T18:51:12.035Z,42.20
2018-07-23T18:56:16.678Z,42.30
2018-07-23T19:01:21.285Z,42.50
2018-07-23T19:06:25.886Z,42.80
2018-07-23T19:11:30.470Z,42.60
2018-07-23T19:16:35.387Z,42.30
2018-07-23T19:21:39.835Z,42.30
2018-07-23T19:26:44.601Z,42.10
2018-07-23T19:31:49.050Z,42.00
2018-07-23T19:36:53.804Z,42.00
2018-07-23T19:41:58.439Z,42.20
2018-07-23T19:47:04.480Z,42.30
2018-07-23T19:52:09.157Z,42.30
2018-07-23T19:57:13.251Z,42.30
2018-07-23T20:02:17.397Z,42.80
2018-07-23T20:07:21.858Z,42.80
2018-07-23T20:12:26.481Z,42.70
2018-07-23T20:17:32.449Z,42.70
2018-07-23T20:22:37.245Z,42.80
2018-07-23T20:27:41.632Z,44.10
2018-07-23T20:32:45.787Z,45.80
2018-07-23T20:37:50.153Z,46.50
2018-07-23T20:42:54.894Z,47.70
2018-07-23T20:47:59.639Z,47.60
2018-07-23T20:53:03.916Z,48.10
2018-07-23T20:58:08.430Z,48.30
2018-07-23T21:03:12.827Z,48.10
2018-07-23T21:08:17.310Z,48.30
2018-07-23T21:13:21.539Z,49.50
2018-07-23T21:18:25.939Z,49.70
2018-07-23T21:23:30.209Z,49.60
2018-07-23T21:28:36.147Z,50.00
2018-07-23T21:33:41.100Z,50.30
2018-07-23T21:38:45.331Z,50.10
2018-07-23T21:43:49.673Z,49.90
2018-07-23T21:48:54.160Z,50.10
2018-07-23T21:53:58.971Z,50.10
2018-07-23T21:59:04.737Z,50.40
2018-07-23T22:04:09.043Z,50.60
2018-07-23T22:09:13.857Z,50.70
2018-07-23T22:14:17.992Z,50.60
2018-07-23T22:19:22.743Z,51.00
2018-07-23T22:24:27.293Z,50.70
2018-07-23T22:29:31.934Z,51.20
2018-07-23T22:34:36.885Z,50.90
2018-07-23T22:39:41.661Z,50.50
2018-07-23T22:44:48.613Z,51.40
2018-07-23T22:49:52.955Z,52.80
2018-07-23T22:54:58.078Z,53.40
2018-07-23T23:00:03.724Z,53.20
2018-07-23T23:05:08.446Z,53.10
2018-07-23T23:10:12.866Z,53.60
2018-07-23T23:15:17.033Z,54.10
2018-07-23T23:20:21.176Z,54.40
2018-07-23T23:25:25.419Z,54.70
2018-07-23T23:30:30.010Z,54.70
2018-07-23T23:35:35.120Z,55.10
2018-07-23T23:40:42.505Z,55.50
2018-07-23T23:45:46.727Z,56.20
2018-07-23T23:50:51.217Z,56.40
2018-07-23T23:55:55.783Z,56.40
